createdAt,value
2022-11-08T00:00:11.894Z,13.20
2022-11-08T00:02:58.532Z,13.53
2022-11-08T00:06:03.295Z,23.97
2022-11-08T00:09:07.982Z,15.40
2022-11-08T00:12:12.613Z,18.30
2022-11-08T00:14:58.676Z,32.23
2022-11-08T00:17:44.829Z,23.43
2022-11-08T00:20:30.381Z,19.47
2022-11-08T00:23:16.294Z,21.70
2022-11-08T00:26:02.272Z,13.27
2022-11-08T00:28:48.272Z,13.10
2022-11-08T00:31:34.411Z,11.90
2022-11-08T00:34:20.259Z,12.53
2022-11-08T00:37:06.662Z,10.00
2022-11-08T00:39:52.911Z,15.77
2022-11-08T00:42:38.772Z,13.70
2022-11-08T00:45:24.877Z,11.93
2022-11-08T00:48:10.849Z,10.40
2022-11-08T00:50:57.921Z,15.77
2022-11-08T00:53:43.686Z,12.87
2022-11-08T00:56:29.551Z,13.00
2022-11-08T00:59:16.350Z,12.10
2022-11-08T01:02:02.568Z,12.17
2022-11-08T01:04:48.965Z,9.90
2022-11-08T01:07:34.826Z,11.00
2022-11-08T01:10:20.679Z,10.50
2022-11-08T01:13:06.572Z,15.53
2022-11-08T01:15:52.789Z,15.50
2022-11-08T01:18:38.736Z,11.83
2022-11-08T01:21:25.441Z,14.60
2022-11-08T01:24:12.533Z,11.57
2022-11-08T01:26:58.345Z,15.70
2022-11-08T01:29:44.097Z,12.70
2022-11-08T01:32:29.944Z,15.97
2022-11-08T01:35:15.594Z,17.40
2022-11-08T01:38:01.952Z,10.60
2022-11-08T01:40:48.989Z,12.07
2022-11-08T01:43:39.766Z,19.80
2022-11-08T01:46:31.726Z,15.30
2022-11-08T01:49:20.844Z,13.60
2022-11-08T01:52:09.992Z,12.47
2022-11-08T01:54:55.983Z,8.80
2022-11-08T01:57:48.716Z,14.03
2022-11-08T02:00:37.073Z,11.63
2022-11-08T02:03:23.301Z,10.40
2022-11-08T02:06:09.819Z,11.97
2022-11-08T02:08:56.905Z,10.70
2022-11-08T02:11:43.528Z,13.27
2022-11-08T02:14:29.505Z,15.67
2022-11-08T02:17:16.111Z,14.93
2022-11-08T02:20:02.265Z,9.90
2022-11-08T02:22:52.919Z,17.67
2022-11-08T02:25:38.597Z,13.97
2022-11-08T02:28:24.273Z,12.80
2022-11-08T02:31:10.696Z,12.97
2022-11-08T02:33:57.806Z,12.30
2022-11-08T02:36:45.091Z,16.07
2022-11-08T02:39:32.894Z,15.37
2022-11-08T02:42:20.640Z,9.57
2022-11-08T02:45:07.465Z,13.40
2022-11-08T02:47:53.521Z,10.00
2022-11-08T02:50:39.598Z,10.80
2022-11-08T02:53:25.556Z,13.93
2022-11-08T02:56:11.797Z,11.90
2022-11-08T02:58:57.822Z,13.23
2022-11-08T03:01:44.032Z,11.40
2022-11-08T03:04:30.720Z,16.43
2022-11-08T03:07:22.170Z,10.47
2022-11-08T03:10:10.986Z,11.70
2022-11-08T03:13:00.840Z,10.10
2022-11-08T03:15:47.001Z,9.63
2022-11-08T03:18:33.011Z,12.60
2022-11-08T03:21:19.037Z,9.93
2022-11-08T03:24:05.609Z,10.20
2022-11-08T03:26:51.490Z,14.97
2022-11-08T03:29:37.490Z,8.40
2022-11-08T03:32:23.273Z,9.07
2022-11-08T03:35:09.242Z,13.30
2022-11-08T03:37:56.067Z,11.13
2022-11-08T03:40:41.901Z,9.80
2022-11-08T03:43:27.505Z,13.40
2022-11-08T03:46:13.031Z,9.57
2022-11-08T03:48:58.792Z,13.73
2022-11-08T03:51:44.738Z,14.90
2022-11-08T03:54:30.618Z,20.87
2022-11-08T03:57:16.545Z,15.10
2022-11-08T04:00:02.139Z,13.13
2022-11-08T04:03:01.807Z,14.60
2022-11-08T04:05:47.645Z,14.87
2022-11-08T04:08:33.349Z,15.10
2022-11-08T04:11:37.979Z,10.13
2022-11-08T04:14:42.510Z,12.97
2022-11-08T04:17:48.238Z,12.80
2022-11-08T04:20:52.535Z,13.50
2022-11-08T04:23:38.780Z,16.50
2022-11-08T04:26:24.232Z,11.80
2022-11-08T04:29:10.532Z,13.77
2022-11-08T04:31:56.506Z,9.37
2022-11-08T04:34:42.437Z,9.57
2022-11-08T04:37:28.311Z,9.30
2022-11-08T04:40:14.207Z,8.57
2022-11-08T04:42:59.946Z,10.47
2022-11-08T04:45:45.856Z,8.13
2022-11-08T04:48:31.748Z,11.20
2022-11-08T04:51:22.856Z,17.30
2022-11-08T04:54:08.492Z,10.10
2022-11-08T04:56:54.475Z,11.93
2022-11-08T04:59:40.340Z,9.43
2022-11-08T05:02:27.429Z,11.80
2022-11-08T05:05:13.455Z,7.73
2022-11-08T05:07:59.361Z,12.57
2022-11-08T05:10:45.353Z,9.40
2022-11-08T05:13:31.278Z,7.67
2022-11-08T05:16:18.640Z,16.17
2022-11-08T05:19:06.995Z,12.80
2022-11-08T05:22:13.545Z,9.37
2022-11-08T05:24:59.054Z,20.07
2022-11-08T05:27:44.620Z,12.47
2022-11-08T05:30:30.322Z,14.57
2022-11-08T05:33:15.830Z,10.30
2022-11-08T05:36:05.795Z,12.10
2022-11-08T05:38:51.863Z,9.30
2022-11-08T05:41:37.637Z,10.13
2022-11-08T05:44:23.192Z,9.17
2022-11-08T05:47:09.099Z,9.80
2022-11-08T05:49:54.854Z,7.83
2022-11-08T05:52:40.742Z,15.70
2022-11-08T05:55:26.663Z,13.00
2022-11-08T05:58:12.547Z,13.60
2022-11-08T06:01:02.502Z,11.00
2022-11-08T06:03:48.576Z,13.80
2022-11-08T06:06:34.142Z,15.30
2022-11-08T06:09:20.113Z,13.90
2022-11-08T06:12:06.083Z,9.30
2022-11-08T06:14:52.078Z,15.70
2022-11-08T06:17:38.046Z,14.73
2022-11-08T06:20:23.807Z,15.77
2022-11-08T06:23:09.340Z,15.23
2022-11-08T06:25:54.933Z,23.97
2022-11-08T06:28:40.910Z,17.47
2022-11-08T06:31:27.026Z,13.80
2022-11-08T06:34:12.915Z,12.57
2022-11-08T06:37:00.182Z,14.43
2022-11-08T06:39:46.071Z,14.30
2022-11-08T06:42:31.894Z,18.47
2022-11-08T06:45:17.697Z,12.20
2022-11-08T06:48:05.590Z,14.30
2022-11-08T06:50:51.438Z,18.57
2022-11-08T06:53:37.128Z,30.97
2022-11-08T06:56:22.638Z,19.33
2022-11-08T06:59:09.587Z,23.27
2022-11-08T07:01:55.748Z,19.23
2022-11-08T07:04:41.714Z,31.87
2022-11-08T07:07:27.543Z,31.50
2022-11-08T07:10:13.204Z,29.47
2022-11-08T07:12:59.646Z,26.53
2022-11-08T07:15:47.499Z,29.47
2022-11-08T07:18:33.313Z,20.80
2022-11-08T07:21:19.371Z,22.57
2022-11-08T07:24:04.934Z,21.37
2022-11-08T07:26:50.689Z,18.13
2022-11-08T07:29:36.456Z,15.67
2022-11-08T07:32:22.399Z,19.30
2022-11-08T07:35:08.191Z,19.73
2022-11-08T07:37:54.493Z,16.23
2022-11-08T07:40:40.135Z,23.87
2022-11-08T07:43:26.758Z,42.43
2022-11-08T07:46:15.389Z,20.17
2022-11-08T07:49:00.878Z,15.97
2022-11-08T07:51:46.555Z,21.00
2022-11-08T07:54:32.227Z,20.33
2022-11-08T07:57:17.983Z,24.13
2022-11-08T08:00:07.854Z,21.50
2022-11-08T08:02:58.341Z,16.70
2022-11-08T08:05:45.108Z,20.03
2022-11-08T08:08:31.151Z,22.93
2022-11-08T08:11:16.623Z,23.33
2022-11-08T08:14:02.259Z,14.07
2022-11-08T08:16:47.816Z,19.13
2022-11-08T08:19:33.673Z,26.50
2022-11-08T08:22:19.111Z,16.97
2022-11-08T08:25:04.735Z,19.23
2022-11-08T08:27:55.299Z,23.07
2022-11-08T08:30:41.923Z,16.47
2022-11-08T08:33:34.414Z,23.53
2022-11-08T08:36:20.198Z,25.17
2022-11-08T08:39:05.943Z,17.83
2022-11-08T08:41:51.517Z,20.40
2022-11-08T08:44:37.390Z,34.53
2022-11-08T08:47:22.983Z,38.83
2022-11-08T08:50:08.864Z,22.30
2022-11-08T08:53:01.221Z,22.40
2022-11-08T08:55:48.036Z,29.80
2022-11-08T08:58:34.029Z,15.27
2022-11-08T09:04:26.028Z,26.60
2022-11-08T09:07:11.826Z,39.83
2022-11-08T09:09:57.560Z,21.00
2022-11-08T09:12:43.366Z,15.67
2022-11-08T09:15:29.475Z,24.27
2022-11-08T09:18:16.095Z,18.43
2022-11-08T09:21:04.274Z,20.23
2022-11-08T09:23:50.212Z,21.73
2022-11-08T09:26:38.397Z,19.77
2022-11-08T09:29:24.135Z,23.77
2022-11-08T09:32:09.785Z,21.60
2022-11-08T09:34:57.196Z,32.73
2022-11-08T09:37:47.038Z,25.90
2022-11-08T09:40:38.640Z,25.33
2022-11-08T09:43:24.578Z,22.80
2022-11-08T09:46:11.418Z,22.90
2022-11-08T09:48:58.127Z,26.33
2022-11-08T09:51:45.351Z,22.83
2022-11-08T09:54:40.547Z,18.13
2022-11-08T09:57:34.659Z,19.53
2022-11-08T10:00:21.298Z,18.93
2022-11-08T10:03:10.846Z,11.33
2022-11-08T10:06:05.152Z,11.13
2022-11-08T10:08:54.927Z,13.80
2022-11-08T10:11:57.961Z,7.70
2022-11-08T10:15:12.148Z,10.20
2022-11-08T10:18:21.259Z,10.53
2022-11-08T10:21:16.359Z,7.80
2022-11-08T10:24:10.340Z,10.10
2022-11-08T10:26:58.478Z,10.57
2022-11-08T10:29:45.601Z,6.23
2022-11-08T10:32:32.708Z,6.20
2022-11-08T10:35:22.554Z,9.23
2022-11-08T10:38:18.445Z,6.73
2022-11-08T10:41:11.138Z,7.67
2022-11-08T10:44:07.155Z,9.90
2022-11-08T10:46:56.095Z,6.10
2022-11-08T10:49:44.662Z,6.33
2022-11-08T10:52:49.124Z,6.23
2022-11-08T10:55:38.972Z,4.33
2022-11-08T10:58:29.202Z,5.03
2022-11-08T11:01:19.892Z,4.57
2022-11-08T11:04:09.929Z,5.30
2022-11-08T11:06:55.706Z,7.27
2022-11-08T11:09:41.468Z,4.87
2022-11-08T11:12:27.346Z,5.00
2022-11-08T11:15:15.339Z,5.43
2022-11-08T11:18:00.988Z,4.53
2022-11-08T11:20:59.055Z,4.53
2022-11-08T11:23:44.776Z,5.30
2022-11-08T11:26:32.602Z,7.70
2022-11-08T11:29:23.802Z,4.87
2022-11-08T11:32:22.270Z,4.23
2022-11-08T11:35:13.807Z,6.33
2022-11-08T11:38:01.497Z,4.00
2022-11-08T11:40:48.303Z,7.30
2022-11-08T11:43:39.871Z,4.37
2022-11-08T11:47:03.407Z,4.37
2022-11-08T11:49:49.672Z,4.07
2022-11-08T11:52:36.253Z,5.20
2022-11-08T11:55:26.686Z,5.07
2022-11-08T11:58:31.624Z,3.00
2022-11-08T12:01:36.142Z,6.40
2022-11-08T12:04:41.205Z,3.97
2022-11-08T12:07:28.165Z,4.83
2022-11-08T12:10:27.443Z,7.87
2022-11-08T12:13:17.461Z,4.83
2022-11-08T12:16:10.828Z,4.83
2022-11-08T12:18:59.606Z,3.90
2022-11-08T12:21:54.142Z,4.47
2022-11-08T12:24:43.018Z,4.37
2022-11-08T12:27:37.463Z,15.60
2022-11-08T12:30:30.234Z,6.20
2022-11-08T12:33:22.753Z,6.33
2022-11-08T12:36:26.270Z,4.13
2022-11-08T12:39:23.508Z,7.37
2022-11-08T12:42:28.266Z,4.10
2022-11-08T12:45:25.819Z,3.70
2022-11-08T12:48:16.997Z,4.83
2022-11-08T12:51:38.267Z,18.33
2022-11-08T12:54:43.377Z,4.20
2022-11-08T12:57:32.264Z,3.53
2022-11-08T13:00:18.939Z,6.23
2022-11-08T13:03:05.379Z,6.30
2022-11-08T13:06:03.314Z,4.07
2022-11-08T13:08:56.614Z,3.93
2022-11-08T13:12:01.267Z,4.10
2022-11-08T13:14:47.157Z,4.53
2022-11-08T13:17:32.997Z,3.60
2022-11-08T13:20:38.624Z,4.80
2022-11-08T13:23:27.210Z,5.73
2022-11-08T13:26:23.523Z,5.13
2022-11-08T13:29:16.082Z,4.03
2022-11-08T13:32:04.839Z,3.30
2022-11-08T13:35:14.131Z,3.07
2022-11-08T13:38:17.651Z,6.20
2022-11-08T13:41:12.785Z,3.63
2022-11-08T13:43:59.166Z,8.70
2022-11-08T13:46:46.188Z,7.53
2022-11-08T13:49:32.039Z,3.40
2022-11-08T13:52:36.895Z,3.40
2022-11-08T13:55:41.355Z,4.23
2022-11-08T13:58:31.198Z,3.60
2022-11-08T14:01:23.559Z,3.57
2022-11-08T14:04:25.253Z,4.30
2022-11-08T14:07:14.201Z,5.37
2022-11-08T14:10:07.033Z,5.13
2022-11-08T14:13:04.902Z,3.80
2022-11-08T14:15:58.710Z,4.43
2022-11-08T14:18:44.865Z,4.03
2022-11-08T14:21:30.451Z,3.40
2022-11-08T14:24:19.228Z,3.67
2022-11-08T14:27:05.521Z,3.57
2022-11-08T14:30:00.013Z,6.33
2022-11-08T14:32:46.400Z,3.47
2022-11-08T14:35:32.886Z,9.20
2022-11-08T14:38:18.469Z,4.30
2022-11-08T14:41:06.156Z,4.77
2022-11-08T14:43:52.888Z,4.00
2022-11-08T14:46:41.619Z,3.57
2022-11-08T14:49:34.850Z,3.70
2022-11-08T14:52:33.347Z,5.10
2022-11-08T14:55:23.448Z,4.60
2022-11-08T14:58:16.221Z,3.20
2022-11-08T15:01:03.815Z,3.67
2022-11-08T15:03:57.462Z,4.67
2022-11-08T15:06:45.333Z,3.70
2022-11-08T15:09:33.865Z,2.70
2022-11-08T15:12:21.270Z,4.00
2022-11-08T15:15:18.917Z,3.30
2022-11-08T15:18:13.778Z,3.67
2022-11-08T15:21:18.964Z,4.23
2022-11-08T15:24:15.650Z,3.20
2022-11-08T15:27:07.340Z,3.13
2022-11-08T15:29:54.483Z,3.67
2022-11-08T15:32:40.686Z,3.83
2022-11-08T15:35:31.503Z,10.60
2022-11-08T15:38:21.082Z,5.73
2022-11-08T15:41:27.139Z,5.53
2022-11-08T15:44:22.022Z,7.17
2022-11-08T15:47:28.547Z,9.80
2022-11-08T15:50:16.077Z,6.73
2022-11-08T15:53:02.581Z,5.50
2022-11-08T15:55:52.678Z,5.63
2022-11-08T15:58:41.958Z,4.90
2022-11-08T16:01:27.652Z,4.40
2022-11-08T16:04:13.386Z,7.23
2022-11-08T16:06:59.479Z,8.67
2022-11-08T16:09:45.538Z,9.20
2022-11-08T16:12:33.718Z,13.03
2022-11-08T16:15:21.065Z,11.13
2022-11-08T16:18:06.957Z,7.53
2022-11-08T16:20:52.813Z,5.93
2022-11-08T16:23:39.886Z,8.20
2022-11-08T16:26:25.412Z,18.93
2022-11-08T16:29:19.087Z,7.03
2022-11-08T16:32:04.860Z,4.30
2022-11-08T16:34:51.830Z,8.20
2022-11-08T16:37:38.723Z,8.83
2022-11-08T16:40:25.379Z,12.33
2022-11-08T16:43:11.771Z,6.67
2022-11-08T16:46:05.346Z,5.53
2022-11-08T16:48:59.150Z,7.90
2022-11-08T16:51:44.937Z,5.93
2022-11-08T16:54:31.213Z,8.70
2022-11-08T17:00:22.750Z,13.00
2022-11-08T17:03:08.508Z,20.60
2022-11-08T17:05:55.539Z,19.43
2022-11-08T17:08:41.285Z,13.50
2022-11-08T17:11:27.032Z,18.83
2022-11-08T17:14:13.054Z,12.30
2022-11-08T17:16:58.664Z,13.87
2022-11-08T17:19:44.478Z,14.23
2022-11-08T17:22:30.396Z,13.80
2022-11-08T17:25:18.402Z,15.90
2022-11-08T17:28:04.341Z,17.37
2022-11-08T17:30:50.469Z,13.07
2022-11-08T17:33:36.308Z,12.20
2022-11-08T17:36:22.235Z,16.67
2022-11-08T17:39:08.534Z,18.80
2022-11-08T17:41:54.276Z,14.77
2022-11-08T17:44:40.214Z,18.60
2022-11-08T17:47:26.742Z,20.73
2022-11-08T17:50:12.765Z,20.70
2022-11-08T17:52:58.933Z,15.77
2022-11-08T17:55:44.943Z,17.60
2022-11-08T17:58:33.409Z,14.60
2022-11-08T18:01:19.967Z,13.70
2022-11-08T18:04:13.797Z,14.80
2022-11-08T18:07:01.562Z,11.57
2022-11-08T18:09:47.251Z,17.13
2022-11-08T18:12:33.109Z,15.13
2022-11-08T18:15:18.843Z,17.40
2022-11-08T18:18:04.874Z,11.30
2022-11-08T18:20:54.756Z,13.47
2022-11-08T18:23:41.228Z,12.90
2022-11-08T18:26:27.769Z,8.93
2022-11-08T18:29:13.581Z,11.93
2022-11-08T18:32:01.629Z,14.07
2022-11-08T18:34:47.421Z,12.10
2022-11-08T18:37:33.320Z,9.20
2022-11-08T18:40:19.032Z,9.90
2022-11-08T18:43:04.839Z,9.30
2022-11-08T18:45:50.448Z,9.50
2022-11-08T18:48:36.310Z,10.80
2022-11-08T18:51:22.599Z,12.10
2022-11-08T18:54:08.374Z,15.37
2022-11-08T18:56:53.769Z,20.07
2022-11-08T18:59:39.227Z,11.50
2022-11-08T19:02:24.799Z,11.00
2022-11-08T19:05:10.678Z,17.37
2022-11-08T19:07:56.855Z,9.40
2022-11-08T19:10:52.385Z,12.07
2022-11-08T19:13:39.369Z,13.53
2022-11-08T19:16:25.054Z,19.87
2022-11-08T19:19:10.843Z,12.60
2022-11-08T19:21:56.666Z,13.90
2022-11-08T19:24:42.481Z,14.13
2022-11-08T19:27:28.418Z,11.07
2022-11-08T19:30:14.412Z,13.10
2022-11-08T19:33:00.289Z,16.80
2022-11-08T19:35:46.146Z,16.03
2022-11-08T19:38:33.142Z,19.40
2022-11-08T19:41:22.269Z,19.27
2022-11-08T19:44:16.756Z,13.20
2022-11-08T19:47:02.268Z,16.80
2022-11-08T19:49:48.239Z,14.20
2022-11-08T19:52:34.133Z,17.70
2022-11-08T19:55:19.826Z,16.77
2022-11-08T19:58:05.646Z,15.10
2022-11-08T20:00:51.395Z,25.13
2022-11-08T20:03:37.418Z,19.10
2022-11-08T20:06:24.155Z,16.30
2022-11-08T20:09:09.916Z,16.03
2022-11-08T20:11:55.762Z,17.20
2022-11-08T20:14:41.200Z,16.17
2022-11-08T20:17:26.775Z,15.50
2022-11-08T20:20:12.332Z,12.27
2022-11-08T20:22:59.223Z,15.00
2022-11-08T20:25:45.135Z,13.70
2022-11-08T20:28:31.051Z,18.00
2022-11-08T20:31:22.715Z,15.00
2022-11-08T20:34:10.314Z,16.60
2022-11-08T20:36:56.122Z,13.67
2022-11-08T20:39:41.792Z,12.67
2022-11-08T20:42:27.787Z,13.33
2022-11-08T20:45:15.083Z,13.33
2022-11-08T20:48:02.617Z,13.57
2022-11-08T20:50:48.459Z,18.47
2022-11-08T20:53:37.881Z,13.97
2022-11-08T20:56:23.864Z,13.00
2022-11-08T20:59:09.491Z,15.83
2022-11-08T21:01:55.660Z,15.90
2022-11-08T21:04:42.292Z,18.73
2022-11-08T21:10:42.817Z,14.00
2022-11-08T21:13:33.589Z,14.17
2022-11-08T21:16:29.712Z,11.40
2022-11-08T21:19:15.789Z,14.10
2022-11-08T21:22:16.727Z,14.03
2022-11-08T21:25:02.237Z,23.57
2022-11-08T21:27:48.046Z,16.90
2022-11-08T21:30:33.612Z,15.70
2022-11-08T21:33:19.441Z,14.10
2022-11-08T21:36:05.729Z,16.07
2022-11-08T21:38:51.331Z,9.60
2022-11-08T21:41:37.227Z,9.47
2022-11-08T21:44:22.855Z,12.20
2022-11-08T21:47:08.740Z,18.30
2022-11-08T21:49:55.306Z,23.00
2022-11-08T21:52:42.570Z,12.10
2022-11-08T21:55:30.065Z,11.37
2022-11-08T21:58:15.867Z,13.27
2022-11-08T22:01:04.960Z,13.60
2022-11-08T22:03:51.048Z,10.47
2022-11-08T22:06:37.038Z,14.83
2022-11-08T22:09:22.899Z,16.13
2022-11-08T22:12:08.798Z,12.27
2022-11-08T22:14:54.775Z,13.17
2022-11-08T22:18:07.620Z,11.47
2022-11-08T22:21:06.475Z,10.73
2022-11-08T22:23:51.967Z,14.80
2022-11-08T22:26:38.277Z,12.20
2022-11-08T22:29:24.898Z,11.33
2022-11-08T22:32:10.429Z,15.30
2022-11-08T22:34:56.282Z,12.97
2022-11-08T22:37:42.175Z,17.13
2022-11-08T22:40:27.900Z,13.37
2022-11-08T22:43:13.693Z,13.27
2022-11-08T22:45:59.760Z,13.47
2022-11-08T22:48:45.882Z,18.57
2022-11-08T22:51:31.763Z,12.50
2022-11-08T22:54:17.387Z,12.53
2022-11-08T22:57:05.168Z,13.40
2022-11-08T22:59:50.677Z,11.83
2022-11-08T23:02:36.701Z,13.30
2022-11-08T23:05:22.774Z,12.50
2022-11-08T23:08:08.753Z,13.53
2022-11-08T23:11:29.872Z,15.20
2022-11-08T23:14:37.553Z,13.43
2022-11-08T23:17:23.838Z,14.50
2022-11-08T23:20:28.809Z,12.47
2022-11-08T23:23:33.557Z,12.40
2022-11-08T23:26:39.350Z,14.33
2022-11-08T23:29:45.330Z,12.60
2022-11-08T23:32:32.457Z,11.93
2022-11-08T23:35:19.759Z,12.60
2022-11-08T23:38:05.759Z,11.37
2022-11-08T23:41:12.760Z,14.10
2022-11-08T23:44:17.283Z,13.13
2022-11-08T23:47:03.470Z,13.27
2022-11-08T23:49:49.506Z,10.47
2022-11-08T23:52:35.549Z,12.97
2022-11-08T23:55:21.584Z,11.70
2022-11-08T23:58:07.490Z,11.90
